createdAt,value
2023-03-22T00:04:51.255Z,53.16
2023-03-22T00:09:54.823Z,53.55
2023-03-22T00:21:48.666Z,54.35
2023-03-22T00:26:52.141Z,54.72
2023-03-22T00:31:56.137Z,54.72
2023-03-22T00:37:01.401Z,54.70
2023-03-22T00:42:05.759Z,55.57
2023-03-22T00:47:09.340Z,55.91
2023-03-22T00:52:14.416Z,55.91
2023-03-22T00:57:18.225Z,56.33
2023-03-22T01:02:29.901Z,56.19
2023-03-22T01:07:41.617Z,56.08
2023-03-22T01:12:46.422Z,56.30
2023-03-22T01:17:50.153Z,55.97
2023-03-22T01:22:55.538Z,56.05
2023-03-22T01:27:59.613Z,55.93
2023-03-22T01:33:03.442Z,55.40
2023-03-22T01:38:09.451Z,55.36
2023-03-22T01:43:19.110Z,55.69
2023-03-22T01:48:27.488Z,55.43
2023-03-22T01:53:36.643Z,55.17
2023-03-22T01:58:43.397Z,55.38
2023-03-22T02:03:54.111Z,55.52
2023-03-22T02:08:59.997Z,55.58
2023-03-22T02:14:27.217Z,55.51
2023-03-22T02:20:47.678Z,54.98
2023-03-22T02:26:24.798Z,55.38
2023-03-22T02:31:51.348Z,55.86
2023-03-22T02:37:36.953Z,55.52
2023-03-22T02:42:51.090Z,57.23
2023-03-22T02:47:59.590Z,57.55
2023-03-22T02:53:08.424Z,56.98
2023-03-22T02:58:18.573Z,57.28
2023-03-22T03:03:25.524Z,57.93
2023-03-22T03:08:29.974Z,57.95
2023-03-22T03:13:36.016Z,58.11
2023-03-22T03:18:51.897Z,57.12
2023-03-22T03:24:04.158Z,58.20
2023-03-22T03:29:16.697Z,57.76
2023-03-22T03:34:27.437Z,58.08
2023-03-22T03:39:36.228Z,58.23
2023-03-22T03:44:41.638Z,58.37
2023-03-22T03:49:46.091Z,58.38
2023-03-22T03:54:49.846Z,58.77
2023-03-22T03:59:58.898Z,58.27
2023-03-22T04:05:17.658Z,58.51
2023-03-22T04:10:21.527Z,58.51
2023-03-22T04:15:26.856Z,58.13
2023-03-22T04:20:34.246Z,58.42
2023-03-22T04:25:38.442Z,58.03
2023-03-22T04:30:52.407Z,58.49
2023-03-22T04:36:17.573Z,57.96
2023-03-22T04:41:43.862Z,58.27
2023-03-22T04:46:49.041Z,57.29
2023-03-22T04:51:53.325Z,58.62
2023-03-22T04:57:07.391Z,58.30
2023-03-22T05:02:18.151Z,57.88
2023-03-22T05:07:24.340Z,58.43
2023-03-22T05:12:32.826Z,58.31
2023-03-22T05:17:58.076Z,58.04
2023-03-22T05:23:02.781Z,58.30
2023-03-22T05:28:08.883Z,58.09
2023-03-22T05:33:24.182Z,58.01
2023-03-22T05:38:31.752Z,58.63
2023-03-22T05:43:38.181Z,58.56
2023-03-22T05:48:44.025Z,57.94
2023-03-22T05:53:50.174Z,58.37
2023-03-22T05:58:59.301Z,58.37
2023-03-22T06:04:04.717Z,58.29
2023-03-22T06:09:17.986Z,58.37
2023-03-22T06:14:26.544Z,58.63
2023-03-22T06:19:54.939Z,58.33
2023-03-22T06:24:58.985Z,58.79
2023-03-22T06:30:12.389Z,58.71
2023-03-22T06:35:43.694Z,59.04
2023-03-22T06:40:51.813Z,59.51
2023-03-22T06:45:57.320Z,59.54
2023-03-22T06:51:09.484Z,60.15
2023-03-22T06:56:14.662Z,60.63
2023-03-22T07:01:26.733Z,60.61
2023-03-22T07:06:33.009Z,60.42
2023-03-22T07:11:38.487Z,60.29
2023-03-22T07:16:42.201Z,60.52
2023-03-22T07:21:47.326Z,59.55
2023-03-22T07:26:51.436Z,59.56
2023-03-22T07:31:59.930Z,59.58
2023-03-22T07:37:13.106Z,58.73
2023-03-22T07:42:18.248Z,58.10
2023-03-22T07:47:52.450Z,57.76
2023-03-22T07:53:21.719Z,57.67
2023-03-22T07:58:26.649Z,57.03
2023-03-22T08:03:30.527Z,57.40
2023-03-22T08:08:46.998Z,56.56
2023-03-22T08:13:51.564Z,55.58
2023-03-22T08:18:55.320Z,54.89
2023-03-22T08:24:02.667Z,54.10
2023-03-22T08:29:28.853Z,53.69
2023-03-22T08:34:33.300Z,54.30
2023-03-22T08:39:38.622Z,52.72
2023-03-22T08:45:06.027Z,51.40
2023-03-22T08:50:13.523Z,51.63
2023-03-22T08:55:40.048Z,51.54
2023-03-22T09:00:50.029Z,51.35
2023-03-22T09:06:06.925Z,50.56
2023-03-22T09:11:17.879Z,50.53
2023-03-22T09:16:23.814Z,50.34
2023-03-22T09:21:29.794Z,49.06
2023-03-22T09:26:45.524Z,50.05
2023-03-22T09:31:51.732Z,49.83
2023-03-22T09:37:02.414Z,50.66
2023-03-22T09:42:27.430Z,49.44
2023-03-22T09:47:44.229Z,47.24
2023-03-22T09:52:48.955Z,46.63
2023-03-22T09:58:04.101Z,47.80
2023-03-22T10:03:20.982Z,47.27
2023-03-22T10:08:34.423Z,47.54
2023-03-22T10:13:49.851Z,47.55
2023-03-22T10:18:58.699Z,45.78
2023-03-22T10:24:08.789Z,46.98
2023-03-22T10:29:23.216Z,45.69
2023-03-22T10:34:31.217Z,44.92
2023-03-22T10:39:39.382Z,44.26
2023-03-22T10:44:49.707Z,45.23
2023-03-22T10:49:56.731Z,42.68
2023-03-22T10:55:04.226Z,43.11
2023-03-22T11:00:17.628Z,44.87
2023-03-22T11:05:24.444Z,44.56
2023-03-22T11:10:32.662Z,41.62
2023-03-22T11:15:40.626Z,43.10
2023-03-22T11:20:55.375Z,43.23
2023-03-22T11:26:11.282Z,43.38
2023-03-22T11:31:18.189Z,40.67
2023-03-22T11:36:23.272Z,40.36
2023-03-22T11:41:29.200Z,40.93
2023-03-22T11:46:36.270Z,41.51
2023-03-22T11:51:40.969Z,41.96
2023-03-22T11:56:48.222Z,40.40
2023-03-22T12:02:04.731Z,41.51
2023-03-22T12:07:16.251Z,42.16
2023-03-22T12:12:23.440Z,38.59
2023-03-22T12:17:35.526Z,41.07
2023-03-22T12:22:45.840Z,37.93
2023-03-22T12:27:52.897Z,40.81
2023-03-22T12:33:03.864Z,39.73
2023-03-22T12:38:24.927Z,39.72
2023-03-22T12:43:48.088Z,40.34
2023-03-22T12:48:56.987Z,39.10
2023-03-22T12:54:02.932Z,34.10
2023-03-22T12:59:14.104Z,33.07
2023-03-22T13:04:46.861Z,37.90
2023-03-22T13:09:51.929Z,32.36
2023-03-22T13:15:00.391Z,31.66
2023-03-22T13:20:35.064Z,32.60
2023-03-22T13:25:40.840Z,30.86
2023-03-22T13:30:50.928Z,33.25
2023-03-22T13:35:59.206Z,31.47
2023-03-22T13:41:05.879Z,31.75
2023-03-22T13:46:28.422Z,32.25
2023-03-22T13:51:34.550Z,31.24
2023-03-22T13:56:57.116Z,32.42
2023-03-22T14:02:05.686Z,32.74
2023-03-22T14:07:24.093Z,33.81
2023-03-22T14:12:33.161Z,31.04
2023-03-22T14:17:43.475Z,30.13
